createdAt,value
2018-06-28T00:04:27.708Z,80.50
2018-06-28T00:09:30.964Z,81.20
2018-06-28T00:19:37.422Z,80.90
2018-06-28T00:24:40.709Z,80.70
2018-06-28T00:29:43.975Z,81.50
2018-06-28T00:34:47.232Z,82.40
2018-06-28T00:39:50.525Z,81.90
2018-06-28T00:44:53.802Z,81.70
2018-06-28T00:49:57.093Z,81.90
2018-06-28T00:55:00.337Z,81.50
2018-06-28T01:00:03.642Z,82.30
2018-06-28T01:05:06.908Z,82.80
2018-06-28T01:10:10.163Z,82.80
2018-06-28T01:15:13.433Z,82.60
2018-06-28T01:20:16.696Z,83.90
2018-06-28T01:25:19.996Z,84.60
2018-06-28T01:30:23.268Z,85.10
2018-06-28T01:35:26.531Z,86.60
2018-06-28T01:40:29.820Z,87.10
2018-06-28T01:45:33.102Z,87.50
2018-06-28T01:50:36.353Z,87.40
2018-06-28T01:55:39.629Z,87.80
2018-06-28T02:00:42.976Z,90.00
2018-06-28T02:05:46.845Z,90.40
2018-06-28T02:10:50.161Z,90.90
2018-06-28T02:15:53.432Z,92.00
2018-06-28T02:20:56.692Z,93.40
2018-06-28T02:25:59.952Z,94.80
2018-06-28T02:31:03.188Z,96.00
2018-06-28T02:36:06.467Z,96.40
2018-06-28T02:41:09.745Z,96.70
2018-06-28T02:46:12.980Z,97.00
2018-06-28T02:51:16.252Z,97.00
2018-06-28T02:56:19.512Z,97.80
2018-06-28T03:01:23.143Z,98.60
2018-06-28T03:11:29.420Z,99.50
2018-06-28T03:16:33.008Z,99.90
2018-06-28T03:21:36.357Z,99.90
2018-06-28T03:26:39.615Z,99.90
2018-06-28T03:31:42.864Z,99.90
2018-06-28T03:36:46.141Z,99.90
2018-06-28T03:41:49.410Z,99.90
2018-06-28T03:46:52.671Z,99.90
2018-06-28T03:51:55.931Z,99.90
2018-06-28T03:56:59.224Z,99.90
2018-06-28T04:02:02.492Z,99.90
2018-06-28T04:07:05.757Z,99.90
2018-06-28T04:12:09.020Z,99.90
2018-06-28T04:17:12.260Z,99.90
2018-06-28T04:22:22.064Z,99.90
2018-06-28T04:27:25.620Z,99.90
2018-06-28T04:32:28.856Z,99.90
2018-06-28T04:37:32.112Z,99.90
2018-06-28T04:42:35.369Z,99.90
2018-06-28T04:47:38.620Z,99.90
2018-06-28T04:57:44.880Z,99.90
2018-06-28T05:02:48.156Z,99.90
2018-06-28T05:07:51.448Z,99.90
2018-06-28T05:12:54.725Z,99.90
2018-06-28T05:17:58.807Z,99.90
2018-06-28T05:28:05.093Z,99.90
2018-06-28T05:33:08.367Z,99.90
2018-06-28T05:38:11.621Z,99.90
2018-06-28T05:43:14.899Z,99.90
2018-06-28T05:48:18.169Z,99.90
2018-06-28T05:58:24.466Z,99.90
2018-06-28T06:03:27.722Z,99.90
2018-06-28T06:08:30.988Z,99.90
2018-06-28T06:13:34.271Z,99.90
2018-06-28T06:18:37.520Z,99.90
2018-06-28T06:23:40.808Z,99.90
2018-06-28T06:28:44.197Z,99.90
2018-06-28T06:33:47.505Z,99.90
2018-06-28T06:38:50.774Z,99.90
2018-06-28T06:43:54.039Z,99.90
2018-06-28T06:48:57.412Z,99.90
2018-06-28T06:54:00.668Z,99.90
2018-06-28T06:59:04.027Z,99.90
2018-06-28T07:04:07.331Z,99.90
2018-06-28T07:14:16.945Z,99.90
2018-06-28T07:24:23.610Z,99.90
2018-06-28T07:34:30.521Z,99.90
2018-06-28T07:39:33.826Z,99.90
2018-06-28T07:49:40.224Z,99.90
2018-06-28T07:54:43.916Z,99.90
2018-06-28T08:04:50.695Z,99.90
2018-06-28T08:09:53.955Z,99.90
2018-06-28T08:14:57.240Z,99.90
2018-06-28T08:20:00.528Z,99.90
2018-06-28T08:30:06.905Z,99.90
2018-06-28T08:40:14.132Z,99.90
2018-06-28T08:45:17.398Z,99.90
2018-06-28T08:50:20.969Z,99.90
2018-06-28T09:05:30.266Z,99.90
2018-06-28T09:10:33.516Z,99.90
2018-06-28T09:15:36.779Z,99.90
2018-06-28T09:20:40.327Z,99.90
2018-06-28T09:30:46.593Z,99.90
2018-06-28T09:35:50.728Z,99.90
2018-06-28T09:40:53.960Z,99.90
2018-06-28T09:45:57.238Z,99.90
2018-06-28T09:56:03.537Z,99.90
2018-06-28T10:06:11.760Z,99.90
2018-06-28T10:16:18.785Z,99.90
2018-06-28T10:36:32.304Z,99.90
2018-06-28T10:41:36.198Z,99.90
2018-06-28T10:46:39.511Z,99.90
2018-06-28T10:51:42.840Z,99.90
2018-06-28T10:56:46.117Z,99.90
2018-06-28T11:02:52.755Z,99.90
2018-06-28T11:07:56.070Z,99.90
2018-06-28T11:12:59.356Z,99.90
2018-06-28T11:18:02.682Z,99.90
2018-06-28T11:23:06.972Z,99.90
2018-06-28T11:33:15.028Z,99.90
2018-06-28T11:38:18.833Z,99.90
2018-06-28T11:48:26.377Z,99.90
2018-06-28T11:53:30.571Z,99.90
2018-06-28T11:58:35.773Z,99.90
2018-06-28T12:03:41.718Z,99.90
2018-06-28T12:08:47.311Z,99.90
2018-06-28T12:13:52.389Z,99.90
2018-06-28T12:18:57.133Z,99.90
2018-06-28T12:34:13.982Z,99.90
2018-06-28T12:44:23.448Z,99.90
2018-06-28T12:54:31.875Z,99.90
2018-06-28T13:04:40.403Z,99.90
2018-06-28T13:09:43.658Z,99.90
2018-06-28T13:14:47.545Z,99.90
2018-06-28T13:19:51.832Z,99.90
2018-06-28T13:24:55.706Z,99.90
2018-06-28T13:29:59.866Z,99.90
2018-06-28T13:45:11.637Z,99.90
2018-06-28T13:50:14.932Z,99.90
2018-06-28T13:55:19.652Z,99.90
2018-06-28T14:00:23.374Z,99.90
2018-06-28T14:05:27.329Z,99.90
2018-06-28T14:15:34.737Z,99.90
2018-06-28T14:20:38.694Z,99.90
2018-06-28T14:25:42.533Z,99.90
2018-06-28T14:30:46.487Z,99.90
2018-06-28T14:35:50.932Z,99.90
2018-06-28T14:40:57.409Z,99.90
2018-06-28T14:46:00.775Z,99.90
2018-06-28T14:51:04.521Z,99.90
2018-06-28T14:56:08.296Z,99.90
2018-06-28T15:01:12.208Z,99.90
2018-06-28T15:11:19.999Z,99.90
2018-06-28T15:16:24.024Z,99.90
2018-06-28T15:21:28.118Z,99.90
2018-06-28T15:26:33.630Z,99.90
2018-06-28T15:31:37.203Z,99.90
2018-06-28T15:36:40.716Z,99.90
2018-06-28T15:41:44.728Z,99.90
2018-06-28T15:46:48.575Z,99.90
2018-06-28T15:51:51.818Z,99.90
2018-06-28T15:56:55.583Z,99.90
2018-06-28T16:07:03.047Z,99.90
2018-06-28T16:12:06.935Z,99.90
2018-06-28T16:17:10.317Z,99.90
2018-06-28T16:22:14.441Z,99.90
2018-06-28T16:27:18.937Z,99.90
2018-06-28T16:32:23.046Z,99.90
2018-06-28T16:37:27.226Z,99.90
2018-06-28T16:42:31.877Z,99.90
2018-06-28T16:47:35.668Z,99.90
2018-06-28T16:52:39.618Z,99.90
2018-06-28T16:57:44.531Z,99.90
2018-06-28T17:02:49.196Z,99.90
2018-06-28T17:07:53.862Z,99.90
2018-06-28T17:12:57.552Z,99.90
2018-06-28T17:18:01.764Z,99.90
2018-06-28T17:23:06.073Z,99.90
2018-06-28T17:28:10.005Z,99.90
2018-06-28T17:33:14.724Z,99.90
2018-06-28T17:38:18.293Z,99.90
2018-06-28T17:43:24.352Z,99.90
2018-06-28T17:48:30.473Z,99.90
2018-06-28T17:53:38.693Z,99.90
2018-06-28T17:58:42.000Z,99.90
2018-06-28T18:03:45.271Z,99.90
2018-06-28T18:08:48.567Z,99.90
2018-06-28T18:13:51.854Z,99.90
2018-06-28T18:18:55.168Z,99.90
2018-06-28T18:23:58.462Z,99.90
2018-06-28T18:29:01.768Z,99.90
2018-06-28T18:34:05.076Z,99.90
2018-06-28T18:39:09.983Z,99.90
2018-06-28T18:44:13.798Z,99.90
2018-06-28T18:49:17.084Z,99.90
2018-06-28T18:54:20.627Z,99.90
2018-06-28T18:59:23.956Z,99.90
2018-06-28T19:04:27.767Z,99.90
2018-06-28T19:09:36.304Z,99.90
2018-06-28T19:14:44.899Z,99.90
2018-06-28T19:19:48.167Z,99.90
2018-06-28T19:24:51.829Z,99.90
2018-06-28T19:30:00.416Z,99.90
2018-06-28T19:35:04.386Z,99.90
2018-06-28T19:40:14.000Z,99.90
2018-06-28T19:45:17.369Z,99.90
2018-06-28T19:50:26.023Z,99.90
2018-06-28T19:55:29.726Z,99.90
2018-06-28T20:00:38.253Z,99.90
2018-06-28T20:05:41.558Z,99.90
2018-06-28T20:10:44.832Z,99.90
2018-06-28T20:15:56.744Z,99.90
2018-06-28T20:21:01.312Z,99.90
2018-06-28T20:33:25.319Z,99.90
2018-06-28T20:38:31.131Z,99.90
2018-06-28T20:43:34.590Z,99.90
2018-06-28T20:48:38.131Z,99.90
2018-06-28T20:53:42.170Z,99.90
2018-06-28T20:58:46.838Z,99.90
2018-06-28T21:03:50.548Z,99.90
2018-06-28T21:08:54.251Z,99.90
2018-06-28T21:13:57.942Z,99.90
2018-06-28T21:19:01.537Z,99.90
2018-06-28T21:24:05.216Z,99.90
2018-06-28T21:29:09.304Z,99.90
2018-06-28T21:34:12.995Z,99.90
2018-06-28T21:39:16.870Z,99.90
2018-06-28T21:44:20.578Z,99.90
2018-06-28T21:49:24.497Z,99.90
2018-06-28T21:54:28.063Z,99.90
2018-06-28T21:59:31.525Z,99.90
2018-06-28T22:04:34.793Z,99.90
2018-06-28T22:09:39.165Z,99.90
2018-06-28T22:14:42.440Z,99.90
2018-06-28T22:19:45.735Z,99.90
2018-06-28T22:24:48.950Z,99.90
2018-06-28T22:29:52.211Z,99.90
2018-06-28T22:34:55.448Z,99.90
2018-06-28T22:39:58.824Z,99.90
2018-06-28T22:45:02.089Z,99.90
2018-06-28T22:50:05.576Z,99.90
2018-06-28T22:55:09.258Z,99.90
2018-06-28T23:00:14.922Z,99.90
2018-06-28T23:05:18.232Z,99.90
2018-06-28T23:10:21.640Z,99.90
2018-06-28T23:15:25.013Z,99.90
2018-06-28T23:20:28.524Z,99.90
2018-06-28T23:30:34.888Z,99.90
2018-06-28T23:35:38.154Z,99.90
2018-06-28T23:40:41.420Z,99.90
2018-06-28T23:45:44.717Z,99.90
2018-06-28T23:50:48.009Z,99.90
2018-06-28T23:55:51.487Z,99.90
